createdAt,value
2023-02-03T00:01:47.617Z,10.50
2023-02-03T00:04:18.090Z,14.15
2023-02-03T00:06:49.406Z,9.83
2023-02-03T00:11:52.682Z,7.23
2023-02-03T00:14:23.007Z,11.47
2023-02-03T00:16:53.502Z,12.00
2023-02-03T00:19:23.934Z,4.43
2023-02-03T00:21:54.312Z,6.77
2023-02-03T00:24:27.429Z,6.77
2023-02-03T00:26:57.861Z,8.47
2023-02-03T00:29:28.484Z,5.70
2023-02-03T00:31:59.235Z,6.15
2023-02-03T00:34:32.799Z,8.35
2023-02-03T00:37:04.650Z,9.23
2023-02-03T00:39:39.904Z,9.35
2023-02-03T00:42:10.503Z,7.50
2023-02-03T00:44:42.900Z,8.32
2023-02-03T00:47:13.224Z,4.40
2023-02-03T00:49:43.622Z,8.30
2023-02-03T00:52:13.916Z,6.83
2023-02-03T00:54:47.108Z,5.53
2023-02-03T00:57:17.751Z,8.80
2023-02-03T00:59:48.147Z,5.68
2023-02-03T01:02:18.748Z,5.97
2023-02-03T01:04:49.461Z,9.05
2023-02-03T01:07:19.970Z,5.68
2023-02-03T01:09:52.920Z,4.47
2023-02-03T01:12:23.246Z,3.03
2023-02-03T01:14:53.572Z,5.67
2023-02-03T01:17:23.978Z,2.80
2023-02-03T01:19:55.601Z,4.30
2023-02-03T01:22:26.062Z,3.42
2023-02-03T01:24:58.963Z,5.03
2023-02-03T01:27:29.275Z,3.33
2023-02-03T01:29:59.987Z,3.58
2023-02-03T01:32:30.679Z,4.63
2023-02-03T01:35:01.151Z,3.67
2023-02-03T01:37:31.468Z,4.83
2023-02-03T01:40:04.441Z,3.60
2023-02-03T01:42:36.627Z,3.00
2023-02-03T01:45:08.096Z,2.83
2023-02-03T01:47:44.307Z,2.90
2023-02-03T01:50:20.813Z,3.37
2023-02-03T01:52:55.273Z,3.20
2023-02-03T01:55:34.574Z,2.43
2023-02-03T01:58:10.709Z,4.00
2023-02-03T02:00:41.079Z,3.97
2023-02-03T02:03:13.209Z,2.83
2023-02-03T02:05:50.307Z,5.50
2023-02-03T02:08:23.304Z,3.28
2023-02-03T02:10:57.518Z,4.75
2023-02-03T02:13:28.867Z,3.38
2023-02-03T02:16:09.919Z,3.65
2023-02-03T02:19:00.065Z,3.80
2023-02-03T02:21:54.335Z,3.33
2023-02-03T02:25:01.585Z,4.22
2023-02-03T02:28:19.697Z,3.85
2023-02-03T02:31:19.929Z,3.97
2023-02-03T02:34:03.663Z,3.42
2023-02-03T02:36:46.459Z,4.82
2023-02-03T02:39:23.507Z,4.15
2023-02-03T02:42:01.382Z,5.13
2023-02-03T02:44:38.214Z,4.13
2023-02-03T02:47:19.189Z,5.05
2023-02-03T02:50:02.154Z,5.28
2023-02-03T02:52:35.797Z,5.22
2023-02-03T02:55:14.957Z,3.90
2023-02-03T02:57:47.188Z,4.35
2023-02-03T03:00:18.549Z,4.75
2023-02-03T03:02:49.100Z,5.00
2023-02-03T03:05:25.211Z,5.47
2023-02-03T03:08:02.893Z,4.63
2023-02-03T03:10:36.070Z,4.10
2023-02-03T03:13:11.555Z,4.03
2023-02-03T03:15:43.759Z,3.58
2023-02-03T03:18:21.296Z,4.38
2023-02-03T03:20:56.747Z,4.90
2023-02-03T03:23:33.622Z,4.30
2023-02-03T03:26:12.887Z,3.88
2023-02-03T03:28:50.095Z,4.55
2023-02-03T03:31:21.663Z,4.45
2023-02-03T03:33:52.565Z,4.05
2023-02-03T03:36:31.522Z,4.60
2023-02-03T03:39:11.747Z,3.30
2023-02-03T03:41:52.538Z,4.50
2023-02-03T03:44:33.921Z,3.72
2023-02-03T03:49:45.235Z,3.65
2023-02-03T03:52:23.990Z,3.90
2023-02-03T03:54:57.010Z,4.25
2023-02-03T03:57:31.754Z,3.75
2023-02-03T04:00:05.134Z,5.05
2023-02-03T04:02:46.527Z,4.45
2023-02-03T04:05:17.594Z,4.90
2023-02-03T04:07:51.267Z,7.28
2023-02-03T04:10:34.126Z,4.97
2023-02-03T04:13:04.756Z,6.53
2023-02-03T04:15:36.427Z,5.13
2023-02-03T04:18:07.817Z,4.72
2023-02-03T04:20:38.105Z,5.40
2023-02-03T04:23:11.633Z,6.17
2023-02-03T04:25:41.912Z,6.75
2023-02-03T04:28:12.346Z,16.90
2023-02-03T04:30:42.841Z,8.43
2023-02-03T04:33:15.998Z,6.15
2023-02-03T04:35:46.348Z,5.70
2023-02-03T04:38:19.304Z,8.27
2023-02-03T04:40:52.263Z,6.75
2023-02-03T04:43:22.572Z,8.80
2023-02-03T04:45:52.894Z,7.17
2023-02-03T04:48:24.028Z,7.17
2023-02-03T04:50:56.350Z,6.82
2023-02-03T04:53:29.322Z,10.15
2023-02-03T04:55:59.711Z,8.13
2023-02-03T04:58:30.460Z,8.33
2023-02-03T05:01:00.898Z,6.80
2023-02-03T05:03:31.279Z,7.90
2023-02-03T05:06:03.298Z,9.70
2023-02-03T05:08:36.248Z,9.27
2023-02-03T05:11:06.812Z,8.38
2023-02-03T05:13:37.294Z,8.82
2023-02-03T05:16:09.088Z,9.20
2023-02-03T05:18:39.514Z,11.05
2023-02-03T05:21:09.965Z,10.53
2023-02-03T05:23:43.048Z,8.38
2023-02-03T05:26:13.665Z,9.07
2023-02-03T05:28:44.149Z,9.07
2023-02-03T05:31:14.696Z,11.40
2023-02-03T05:33:45.080Z,9.25
2023-02-03T05:36:15.346Z,8.60
2023-02-03T05:38:48.320Z,8.13
2023-02-03T05:41:30.962Z,9.13
2023-02-03T05:44:02.034Z,11.55
2023-02-03T05:46:33.490Z,10.23
2023-02-03T05:49:04.475Z,12.48
2023-02-03T05:51:34.912Z,10.95
2023-02-03T05:54:08.391Z,11.20
2023-02-03T05:56:38.808Z,8.77
2023-02-03T05:59:09.454Z,9.50
2023-02-03T06:01:40.147Z,11.10
2023-02-03T06:04:10.845Z,8.75
2023-02-03T06:06:41.389Z,8.48
2023-02-03T06:09:14.342Z,9.82
2023-02-03T06:11:44.664Z,10.23
2023-02-03T06:14:15.000Z,8.77
2023-02-03T06:16:45.450Z,7.60
2023-02-03T06:19:16.470Z,7.93
2023-02-03T06:21:46.950Z,7.18
2023-02-03T06:24:20.328Z,7.55
2023-02-03T06:26:50.676Z,8.18
2023-02-03T06:29:21.240Z,8.67
2023-02-03T06:31:51.807Z,10.23
2023-02-03T06:34:22.258Z,6.57
2023-02-03T06:36:52.757Z,6.70
2023-02-03T06:39:25.886Z,6.93
2023-02-03T06:41:56.486Z,5.63
2023-02-03T06:44:27.309Z,5.97
2023-02-03T06:46:58.851Z,5.53
2023-02-03T06:49:29.199Z,5.05
2023-02-03T06:51:59.554Z,4.57
2023-02-03T06:54:32.415Z,6.50
2023-02-03T06:57:02.695Z,5.38
2023-02-03T06:59:33.224Z,4.33
2023-02-03T07:02:03.659Z,4.53
2023-02-03T07:04:34.027Z,5.23
2023-02-03T07:07:04.317Z,5.60
2023-02-03T07:09:37.369Z,3.80
2023-02-03T07:12:08.412Z,3.28
2023-02-03T07:14:39.557Z,4.38
2023-02-03T07:17:09.943Z,5.70
2023-02-03T07:19:40.269Z,4.30
2023-02-03T07:22:10.596Z,3.80
2023-02-03T07:24:43.546Z,5.13
2023-02-03T07:27:13.877Z,5.45
2023-02-03T07:29:44.245Z,3.40
2023-02-03T07:32:14.655Z,3.20
2023-02-03T07:34:45.075Z,3.22
2023-02-03T07:37:15.420Z,4.83
2023-02-03T07:39:48.738Z,3.20
2023-02-03T07:42:19.037Z,2.60
2023-02-03T07:44:53.175Z,3.90
2023-02-03T07:47:23.471Z,5.57
2023-02-03T07:49:53.797Z,4.20
2023-02-03T07:52:24.197Z,3.17
2023-02-03T07:54:57.133Z,7.63
2023-02-03T07:57:27.618Z,5.95
2023-02-03T07:59:57.969Z,4.47
2023-02-03T08:02:28.605Z,3.83
2023-02-03T08:04:59.532Z,3.90
2023-02-03T08:07:30.054Z,3.53
2023-02-03T08:10:03.097Z,4.03
2023-02-03T08:12:33.532Z,5.30
2023-02-03T08:15:04.074Z,4.43
2023-02-03T08:17:34.493Z,6.60
2023-02-03T08:20:04.889Z,4.95
2023-02-03T08:22:35.255Z,4.03
2023-02-03T08:25:09.615Z,6.13
2023-02-03T08:27:40.232Z,5.25
2023-02-03T08:30:16.408Z,7.43
2023-02-03T08:32:46.848Z,5.68
2023-02-03T08:35:17.424Z,6.57
2023-02-03T08:37:47.877Z,4.32
2023-02-03T08:40:21.461Z,6.70
2023-02-03T08:42:51.811Z,5.90
2023-02-03T08:45:22.484Z,5.67
2023-02-03T08:47:52.921Z,4.63
2023-02-03T08:50:23.631Z,5.23
2023-02-03T08:52:54.069Z,9.05
2023-02-03T08:55:27.090Z,7.13
2023-02-03T08:57:57.402Z,5.75
2023-02-03T09:00:28.485Z,6.57
2023-02-03T09:02:59.041Z,7.25
2023-02-03T09:05:29.375Z,7.20
2023-02-03T09:07:59.745Z,5.43
2023-02-03T09:10:32.726Z,6.20
2023-02-03T09:13:03.121Z,5.88
2023-02-03T09:15:33.383Z,4.80
2023-02-03T09:18:03.790Z,4.97
2023-02-03T09:20:34.154Z,5.90
2023-02-03T09:23:04.826Z,7.10
2023-02-03T09:25:37.832Z,7.37
2023-02-03T09:28:08.279Z,5.32
2023-02-03T09:30:38.641Z,5.23
2023-02-03T09:33:08.966Z,5.00
2023-02-03T09:35:39.428Z,7.23
2023-02-03T09:38:09.721Z,6.10
2023-02-03T09:40:43.227Z,4.80
2023-02-03T09:43:31.938Z,5.95
2023-02-03T09:46:09.474Z,3.72
2023-02-03T09:48:44.580Z,4.78
2023-02-03T09:51:23.629Z,5.35
2023-02-03T09:54:00.209Z,6.35
2023-02-03T09:56:36.874Z,5.15
2023-02-03T09:59:07.341Z,4.55
2023-02-03T10:01:48.289Z,6.90
2023-02-03T10:04:33.551Z,8.13
2023-02-03T10:07:20.316Z,5.32
2023-02-03T10:10:03.884Z,9.80
2023-02-03T10:12:53.806Z,7.15
2023-02-03T10:15:52.252Z,6.68
2023-02-03T10:18:28.755Z,7.47
2023-02-03T10:21:04.346Z,9.32
2023-02-03T10:23:39.874Z,5.13
2023-02-03T10:26:15.912Z,7.00
2023-02-03T10:28:56.826Z,6.53
2023-02-03T10:31:30.547Z,6.22
2023-02-03T10:34:04.955Z,5.65
2023-02-03T10:36:54.394Z,9.32
2023-02-03T10:39:35.930Z,5.18
2023-02-03T10:42:08.559Z,7.03
2023-02-03T10:44:46.038Z,4.68
2023-02-03T10:47:28.080Z,5.82
2023-02-03T10:50:01.328Z,6.20
2023-02-03T10:52:34.721Z,8.18
2023-02-03T10:55:13.720Z,6.32
2023-02-03T10:57:44.124Z,6.50
2023-02-03T11:00:31.498Z,7.13
2023-02-03T11:03:08.849Z,5.40
2023-02-03T11:05:40.420Z,7.00
2023-02-03T11:08:18.523Z,6.90
2023-02-03T11:10:48.928Z,5.93
2023-02-03T11:13:26.096Z,6.15
2023-02-03T11:16:05.571Z,4.57
2023-02-03T11:18:43.384Z,8.80
2023-02-03T11:21:17.676Z,9.32
2023-02-03T11:24:00.773Z,4.63
2023-02-03T11:26:35.512Z,6.28
2023-02-03T11:29:09.178Z,5.00
2023-02-03T11:31:42.356Z,7.25
2023-02-03T11:34:20.864Z,4.45
2023-02-03T11:36:51.203Z,5.70
2023-02-03T11:39:35.613Z,5.87
2023-02-03T11:42:06.395Z,4.85
2023-02-03T11:44:36.759Z,5.43
2023-02-03T11:47:16.879Z,4.07
2023-02-03T11:50:06.713Z,4.47
2023-02-03T11:53:02.153Z,7.13
2023-02-03T11:55:55.768Z,4.20
2023-02-03T11:59:10.298Z,7.85
2023-02-03T12:02:16.498Z,4.70
2023-02-03T12:05:05.639Z,4.57
2023-02-03T12:07:56.510Z,5.72
2023-02-03T12:10:46.045Z,4.28
2023-02-03T12:13:53.370Z,6.80
2023-02-03T12:16:44.723Z,4.15
2023-02-03T12:19:22.631Z,3.60
2023-02-03T12:22:05.686Z,3.17
2023-02-03T12:24:48.343Z,4.82
2023-02-03T12:27:36.706Z,4.15
2023-02-03T12:30:14.205Z,4.35
2023-02-03T12:32:51.197Z,4.38
2023-02-03T12:35:30.476Z,4.10
2023-02-03T12:38:11.357Z,4.35
2023-02-03T12:40:49.365Z,4.78
2023-02-03T12:43:27.478Z,4.50
2023-02-03T12:46:03.716Z,5.00
2023-02-03T12:48:49.886Z,3.08
2023-02-03T12:51:32.628Z,3.10
2023-02-03T12:54:14.265Z,3.92
2023-02-03T12:56:51.284Z,4.90
2023-02-03T12:59:26.673Z,4.53
2023-02-03T13:02:02.673Z,4.00
2023-02-03T13:04:41.537Z,5.07
2023-02-03T13:07:21.678Z,4.05
2023-02-03T13:10:03.840Z,2.55
2023-02-03T13:12:39.103Z,3.65
2023-02-03T13:15:23.910Z,3.60
2023-02-03T13:18:00.390Z,3.28
2023-02-03T13:20:36.156Z,3.70
2023-02-03T13:23:11.259Z,2.42
2023-02-03T13:25:57.883Z,3.55
2023-02-03T13:28:50.889Z,3.65
2023-02-03T13:31:36.667Z,3.53
2023-02-03T13:34:41.809Z,3.95
2023-02-03T13:38:01.462Z,4.25
2023-02-03T13:40:53.407Z,3.80
2023-02-03T13:43:38.595Z,3.22
2023-02-03T13:46:14.221Z,4.57
2023-02-03T13:48:49.304Z,6.50
2023-02-03T13:51:24.337Z,3.05
2023-02-03T13:54:03.043Z,5.32
2023-02-03T13:56:37.147Z,3.25
2023-02-03T13:59:18.189Z,3.08
2023-02-03T14:01:49.195Z,2.55
2023-02-03T14:04:55.589Z,2.45
2023-02-03T14:07:36.739Z,3.38
2023-02-03T14:10:25.936Z,2.60
2023-02-03T14:13:03.859Z,4.93
2023-02-03T14:15:37.219Z,7.43
2023-02-03T14:18:42.279Z,5.40
2023-02-03T14:21:19.604Z,7.03
2023-02-03T14:24:08.964Z,8.15
2023-02-03T14:26:44.136Z,5.35
2023-02-03T14:29:30.046Z,8.70
2023-02-03T14:32:05.389Z,7.38
2023-02-03T14:34:41.721Z,9.13
2023-02-03T14:37:17.954Z,5.85
2023-02-03T14:40:17.915Z,7.35
2023-02-03T14:43:11.956Z,12.25
2023-02-03T14:46:24.094Z,9.93
2023-02-03T14:49:27.232Z,4.97
2023-02-03T14:52:17.200Z,6.70
2023-02-03T14:55:08.934Z,6.57
2023-02-03T14:57:44.465Z,6.63
2023-02-03T15:00:33.274Z,6.68
2023-02-03T15:03:25.718Z,13.38
2023-02-03T15:05:59.725Z,9.50
2023-02-03T15:08:44.338Z,9.07
2023-02-03T15:11:36.924Z,11.63
2023-02-03T15:14:27.508Z,9.07
2023-02-03T15:17:01.652Z,10.90
2023-02-03T15:19:42.427Z,7.72
2023-02-03T15:22:24.116Z,6.45
2023-02-03T15:25:05.279Z,6.93
2023-02-03T15:30:27.693Z,15.15
2023-02-03T15:35:49.137Z,8.20
2023-02-03T15:41:01.352Z,10.70
2023-02-03T15:43:38.267Z,9.23
2023-02-03T15:46:20.869Z,13.65
2023-02-03T15:48:58.103Z,7.35
2023-02-03T15:51:45.507Z,10.80
2023-02-03T15:54:32.827Z,12.20
2023-02-03T15:57:10.890Z,10.65
2023-02-03T15:59:51.718Z,11.27
2023-02-03T16:02:44.809Z,12.90
2023-02-03T16:05:30.380Z,14.45
2023-02-03T16:08:46.408Z,10.38
2023-02-03T16:11:35.581Z,9.52
2023-02-03T16:14:09.465Z,12.82
2023-02-03T16:17:04.554Z,9.70
2023-02-03T16:19:44.357Z,10.68
2023-02-03T16:22:34.952Z,16.90
2023-02-03T16:25:23.169Z,10.48
2023-02-03T16:28:12.984Z,18.08
2023-02-03T16:31:08.353Z,12.40
2023-02-03T16:33:56.427Z,13.63
2023-02-03T16:36:49.503Z,17.85
2023-02-03T16:39:32.637Z,27.80
2023-02-03T16:42:29.660Z,19.55
2023-02-03T16:45:12.328Z,14.75
2023-02-03T16:47:55.269Z,14.10
2023-02-03T16:50:40.065Z,13.57
2023-02-03T16:53:17.234Z,15.07
2023-02-03T16:55:51.360Z,15.02
2023-02-03T16:58:24.894Z,13.43
2023-02-03T17:00:57.280Z,12.82
2023-02-03T17:03:30.468Z,13.43
2023-02-03T17:06:01.162Z,21.48
2023-02-03T17:08:31.561Z,12.15
2023-02-03T17:11:08.252Z,16.77
2023-02-03T17:13:42.383Z,11.85
2023-02-03T17:16:16.734Z,11.23
2023-02-03T17:18:47.818Z,12.90
2023-02-03T17:21:21.799Z,12.73
2023-02-03T17:23:52.245Z,17.45
2023-02-03T17:26:22.683Z,15.88
2023-02-03T17:29:03.186Z,16.07
2023-02-03T17:31:35.172Z,14.43
2023-02-03T17:34:05.528Z,12.82
2023-02-03T17:36:38.133Z,15.00
2023-02-03T17:55:36.833Z,16.98
2023-02-03T17:58:09.419Z,19.48
2023-02-03T18:00:42.868Z,12.35
2023-02-03T18:03:13.253Z,12.43
2023-02-03T18:05:53.065Z,15.65
2023-02-03T18:08:25.244Z,13.50
2023-02-03T18:10:55.938Z,12.50
2023-02-03T18:13:27.044Z,14.27
2023-02-03T18:18:32.132Z,15.70
2023-02-03T18:21:02.582Z,14.25
2023-02-03T18:23:33.234Z,12.18
2023-02-03T18:26:03.861Z,16.83
2023-02-03T18:28:34.874Z,13.73
2023-02-03T18:31:11.545Z,15.13
2023-02-03T18:33:42.711Z,22.95
2023-02-03T18:36:14.620Z,19.42
2023-02-03T18:38:47.391Z,11.95
2023-02-03T18:41:21.241Z,12.60
2023-02-03T18:43:51.993Z,17.63
2023-02-03T18:46:28.671Z,16.92
2023-02-03T18:48:59.213Z,11.52
2023-02-03T18:51:30.517Z,11.65
2023-02-03T18:54:03.623Z,11.77
2023-02-03T18:56:35.667Z,12.32
2023-02-03T18:59:11.841Z,12.18
2023-02-03T19:01:46.868Z,11.20
2023-02-03T19:04:17.398Z,14.90
2023-02-03T19:06:51.262Z,18.55
2023-02-03T19:09:23.782Z,17.08
2023-02-03T19:11:54.720Z,13.75
2023-02-03T19:14:25.460Z,33.80
2023-02-03T19:16:59.078Z,14.82
2023-02-03T19:19:29.796Z,17.08
2023-02-03T19:22:03.359Z,15.90
2023-02-03T19:24:33.681Z,17.10
2023-02-03T19:27:04.103Z,15.57
2023-02-03T19:29:34.640Z,19.80
2023-02-03T19:32:09.848Z,9.82
2023-02-03T19:34:42.093Z,14.85
2023-02-03T19:37:12.529Z,16.85
2023-02-03T19:39:45.100Z,12.85
2023-02-03T19:42:15.497Z,12.70
2023-02-03T19:44:46.107Z,13.18
2023-02-03T19:47:19.243Z,21.35
2023-02-03T19:49:49.950Z,14.88
2023-02-03T19:52:20.563Z,13.50
2023-02-03T19:54:52.255Z,13.73
2023-02-03T19:57:22.803Z,14.93
2023-02-03T19:59:53.233Z,14.50
2023-02-03T20:02:31.549Z,22.83
2023-02-03T20:05:23.153Z,14.20
2023-02-03T20:07:53.704Z,13.68
2023-02-03T20:10:30.776Z,16.77
2023-02-03T20:13:04.793Z,16.02
2023-02-03T20:15:35.760Z,16.80
2023-02-03T20:18:18.616Z,34.40
2023-02-03T20:20:59.717Z,36.25
2023-02-03T20:23:45.948Z,18.98
2023-02-03T20:26:16.896Z,15.88
2023-02-03T20:28:54.888Z,12.25
2023-02-03T20:31:37.152Z,14.40
2023-02-03T20:34:12.626Z,14.48
2023-02-03T20:36:49.788Z,20.02
2023-02-03T20:39:22.910Z,16.02
2023-02-03T20:41:53.230Z,20.25
2023-02-03T20:44:23.592Z,18.90
2023-02-03T20:46:56.113Z,13.95
2023-02-03T20:49:29.260Z,19.98
2023-02-03T20:51:59.495Z,19.98
2023-02-03T20:54:29.973Z,19.07
2023-02-03T20:57:00.480Z,11.88
2023-02-03T20:59:33.921Z,16.27
2023-02-03T21:02:10.930Z,24.17
2023-02-03T21:04:56.403Z,23.23
2023-02-03T21:07:27.612Z,21.40
2023-02-03T21:09:58.432Z,18.20
2023-02-03T21:12:30.884Z,21.45
2023-02-03T21:15:01.470Z,17.35
2023-02-03T21:17:31.905Z,20.25
2023-02-03T21:20:05.503Z,21.73
2023-02-03T21:22:36.104Z,16.65
2023-02-03T21:25:06.854Z,29.52
2023-02-03T21:27:38.103Z,33.05
2023-02-03T21:30:30.890Z,32.65
2023-02-03T21:33:02.253Z,22.25
2023-02-03T21:35:38.884Z,20.75
2023-02-03T21:38:31.526Z,16.65
2023-02-03T21:41:02.487Z,16.52
2023-02-03T21:43:33.178Z,20.73
2023-02-03T21:46:03.615Z,20.63
2023-02-03T21:48:35.658Z,20.55
2023-02-03T21:51:19.123Z,19.90
2023-02-03T21:53:57.001Z,27.95
2023-02-03T21:56:31.414Z,20.38
2023-02-03T21:59:01.777Z,21.73
2023-02-03T22:01:39.692Z,23.47
2023-02-03T22:04:10.025Z,19.67
2023-02-03T22:06:49.201Z,27.83
2023-02-03T22:09:22.510Z,19.98
2023-02-03T22:11:53.388Z,22.58
2023-02-03T22:14:23.909Z,17.92
2023-02-03T22:16:54.409Z,15.00
2023-02-03T22:19:24.755Z,18.33
2023-02-03T22:21:57.790Z,17.23
2023-02-03T22:24:28.847Z,21.13
2023-02-03T22:27:00.290Z,22.27
2023-02-03T22:29:30.591Z,19.27
2023-02-03T22:32:00.961Z,18.03
2023-02-03T22:34:31.517Z,19.52
2023-02-03T22:37:04.506Z,18.10
2023-02-03T22:39:34.868Z,19.27
2023-02-03T22:42:05.178Z,20.43
2023-02-03T22:44:35.584Z,23.20
2023-02-03T22:47:06.038Z,25.52
2023-02-03T22:49:36.456Z,20.65
2023-02-03T22:52:09.359Z,14.13
2023-02-03T22:54:39.758Z,22.38
2023-02-03T22:57:10.056Z,22.47
2023-02-03T22:59:40.457Z,13.37
2023-02-03T23:02:10.781Z,21.37
2023-02-03T23:04:41.089Z,19.50
2023-02-03T23:07:14.711Z,23.43
2023-02-03T23:09:45.139Z,16.83
2023-02-03T23:12:15.409Z,20.50
2023-02-03T23:14:45.717Z,23.30
2023-02-03T23:17:16.059Z,13.37
2023-02-03T23:19:46.759Z,21.80
2023-02-03T23:22:19.934Z,20.58
2023-02-03T23:24:50.245Z,21.17
2023-02-03T23:27:20.505Z,17.67
2023-02-03T23:29:50.799Z,11.40
2023-02-03T23:32:21.076Z,18.93
2023-02-03T23:35:03.796Z,17.03
2023-02-03T23:37:36.731Z,20.20
2023-02-03T23:40:09.810Z,21.23
2023-02-03T23:42:40.152Z,17.05
2023-02-03T23:45:12.442Z,13.43
2023-02-03T23:47:43.607Z,18.17
2023-02-03T23:50:19.049Z,16.90
2023-02-03T23:52:52.327Z,13.82
2023-02-03T23:55:23.966Z,16.42
2023-02-03T23:57:54.292Z,10.48
